createdAt,value
2018-12-17T00:01:40.310Z,99.90
2018-12-17T00:04:08.486Z,99.90
2018-12-17T00:06:36.664Z,99.90
2018-12-17T00:09:06.769Z,99.90
2018-12-17T00:11:35.279Z,99.90
2018-12-17T00:14:03.459Z,99.90
2018-12-17T00:16:31.817Z,99.90
2018-12-17T00:18:59.981Z,99.90
2018-12-17T00:21:28.159Z,99.90
2018-12-17T00:23:56.512Z,99.90
2018-12-17T00:26:24.689Z,99.90
2018-12-17T00:28:52.900Z,99.90
2018-12-17T00:31:21.116Z,99.90
2018-12-17T00:33:49.319Z,99.90
2018-12-17T00:36:17.502Z,99.90
2018-12-17T00:38:45.702Z,99.90
2018-12-17T00:41:13.876Z,99.90
2018-12-17T00:43:42.184Z,99.90
2018-12-17T00:46:10.390Z,99.90
2018-12-17T00:48:38.728Z,99.90
2018-12-17T00:51:06.908Z,99.90
2018-12-17T00:53:35.124Z,99.90
2018-12-17T00:56:03.324Z,99.90
2018-12-17T00:58:31.554Z,99.90
2018-12-17T01:00:59.767Z,99.90
2018-12-17T01:03:27.951Z,99.90
2018-12-17T01:05:56.128Z,99.90
2018-12-17T01:08:24.379Z,99.90
2018-12-17T01:10:52.567Z,99.90
2018-12-17T01:13:20.765Z,99.90
2018-12-17T01:15:48.966Z,99.90
2018-12-17T01:18:17.225Z,99.90
2018-12-17T01:20:45.397Z,99.90
2018-12-17T01:23:13.772Z,99.90
2018-12-17T01:25:41.955Z,99.90
2018-12-17T01:28:10.129Z,99.90
2018-12-17T01:30:38.332Z,99.90
2018-12-17T01:33:06.522Z,99.90
2018-12-17T01:35:34.701Z,99.90
2018-12-17T01:38:03.036Z,99.90
2018-12-17T01:40:31.227Z,99.90
2018-12-17T01:42:59.408Z,99.90
2018-12-17T01:45:27.603Z,99.90
2018-12-17T01:47:55.800Z,99.90
2018-12-17T01:50:23.982Z,99.90
2018-12-17T01:52:52.211Z,99.90
2018-12-17T01:55:20.396Z,99.90
2018-12-17T01:57:48.657Z,99.90
2018-12-17T02:00:16.855Z,99.90
2018-12-17T02:02:45.050Z,99.90
2018-12-17T02:05:13.381Z,99.90
2018-12-17T02:07:41.807Z,99.90
2018-12-17T02:10:09.997Z,99.90
2018-12-17T02:12:38.176Z,99.90
2018-12-17T02:15:06.381Z,99.90
2018-12-17T02:17:34.560Z,99.90
2018-12-17T02:20:03.304Z,99.90
2018-12-17T02:22:31.495Z,99.90
2018-12-17T02:24:59.670Z,99.90
2018-12-17T02:27:27.851Z,99.90
2018-12-17T02:29:56.056Z,99.90
2018-12-17T02:32:24.245Z,99.90
2018-12-17T02:34:52.451Z,99.90
2018-12-17T02:37:20.652Z,99.90
2018-12-17T02:39:48.845Z,99.90
2018-12-17T02:42:17.046Z,99.90
2018-12-17T02:44:45.257Z,99.90
2018-12-17T02:47:13.432Z,99.90
2018-12-17T02:49:41.599Z,99.90
2018-12-17T02:52:09.812Z,99.90
2018-12-17T02:54:38.185Z,99.90
2018-12-17T02:57:06.446Z,99.90
2018-12-17T02:59:34.660Z,99.90
2018-12-17T03:02:02.844Z,99.90
2018-12-17T03:04:31.022Z,99.90
2018-12-17T03:06:59.228Z,99.90
2018-12-17T03:09:27.404Z,99.90
2018-12-17T03:11:55.595Z,99.90
2018-12-17T03:14:23.866Z,99.90
2018-12-17T03:16:52.057Z,99.90
2018-12-17T03:19:20.242Z,99.90
2018-12-17T03:21:48.571Z,99.90
2018-12-17T03:24:17.140Z,99.90
2018-12-17T03:26:45.415Z,99.90
2018-12-17T03:29:13.616Z,99.90
2018-12-17T03:31:42.127Z,99.90
2018-12-17T03:34:10.319Z,99.90
2018-12-17T03:36:38.537Z,99.90
2018-12-17T03:39:06.845Z,99.90
2018-12-17T03:41:35.032Z,99.90
2018-12-17T03:44:03.246Z,99.90
2018-12-17T03:46:31.434Z,99.90
2018-12-17T03:48:59.612Z,99.90
2018-12-17T03:51:27.825Z,99.90
2018-12-17T03:53:56.005Z,99.90
2018-12-17T03:56:24.190Z,99.90
2018-12-17T03:58:59.035Z,99.90
2018-12-17T04:01:22.781Z,99.90
2018-12-17T04:03:51.152Z,99.90
2018-12-17T04:06:19.365Z,99.90
2018-12-17T04:08:47.694Z,99.90
2018-12-17T04:11:15.907Z,99.90
2018-12-17T04:13:44.229Z,99.90
2018-12-17T04:16:12.412Z,99.90
2018-12-17T04:18:40.818Z,99.90
2018-12-17T04:21:09.029Z,99.90
2018-12-17T04:23:37.219Z,99.90
2018-12-17T04:26:05.412Z,99.90
2018-12-17T04:28:33.617Z,99.90
2018-12-17T04:31:01.798Z,99.90
2018-12-17T04:33:30.140Z,99.90
2018-12-17T04:35:58.341Z,99.90
2018-12-17T04:38:26.521Z,99.90
2018-12-17T04:40:54.752Z,99.90
2018-12-17T04:43:22.945Z,99.90
2018-12-17T04:45:51.141Z,99.90
2018-12-17T04:48:19.318Z,99.90
2018-12-17T04:50:47.541Z,99.90
2018-12-17T04:53:15.714Z,99.90
2018-12-17T04:55:43.910Z,99.90
2018-12-17T04:58:12.113Z,99.90
2018-12-17T05:00:40.465Z,99.90
2018-12-17T05:03:08.638Z,99.90
2018-12-17T05:05:36.855Z,99.90
2018-12-17T05:08:05.282Z,99.90
2018-12-17T05:10:33.471Z,99.90
2018-12-17T05:13:01.668Z,99.90
2018-12-17T05:15:29.960Z,99.90
2018-12-17T05:17:58.169Z,99.90
2018-12-17T05:20:26.382Z,99.90
2018-12-17T05:23:00.551Z,99.90
2018-12-17T05:25:28.760Z,99.90
2018-12-17T05:27:56.941Z,99.90
2018-12-17T05:30:25.168Z,99.90
2018-12-17T05:32:53.380Z,99.90
2018-12-17T05:35:21.564Z,99.90
2018-12-17T05:37:49.748Z,99.90
2018-12-17T05:40:18.057Z,99.90
2018-12-17T05:42:46.493Z,99.90
2018-12-17T05:45:14.669Z,99.90
2018-12-17T05:47:42.881Z,99.90
2018-12-17T05:50:11.089Z,99.90
2018-12-17T05:52:39.277Z,99.90
2018-12-17T05:55:07.504Z,99.90
2018-12-17T05:57:35.692Z,99.90
2018-12-17T06:00:06.173Z,99.90
2018-12-17T06:02:34.403Z,99.90
2018-12-17T06:05:02.584Z,99.90
2018-12-17T06:07:30.760Z,99.90
2018-12-17T06:09:59.176Z,99.90
2018-12-17T06:12:27.353Z,99.90
2018-12-17T06:14:55.529Z,99.90
2018-12-17T06:17:23.758Z,99.90
2018-12-17T06:19:51.942Z,99.90
2018-12-17T06:22:20.254Z,99.90
2018-12-17T06:24:48.466Z,99.90
2018-12-17T06:27:16.737Z,99.90
2018-12-17T06:29:44.922Z,99.90
2018-12-17T06:32:13.130Z,99.90
2018-12-17T06:34:41.313Z,99.90
2018-12-17T06:37:09.490Z,99.90
2018-12-17T06:39:37.720Z,99.90
2018-12-17T06:42:05.904Z,99.90
2018-12-17T06:44:34.079Z,99.90
2018-12-17T06:47:02.384Z,99.90
2018-12-17T06:49:30.626Z,99.90
2018-12-17T06:51:59.134Z,99.90
2018-12-17T06:54:27.774Z,99.90
2018-12-17T06:56:55.961Z,99.90
2018-12-17T06:59:24.137Z,99.90
2018-12-17T07:01:52.500Z,99.90
2018-12-17T07:04:20.681Z,99.90
2018-12-17T07:06:48.863Z,99.90
2018-12-17T07:09:17.159Z,99.90
2018-12-17T07:11:45.580Z,99.90
2018-12-17T07:14:13.765Z,99.90
2018-12-17T07:16:41.961Z,99.90
2018-12-17T07:19:10.133Z,99.90
2018-12-17T07:21:38.334Z,99.90
2018-12-17T07:24:06.583Z,99.90
2018-12-17T07:26:34.771Z,99.90
2018-12-17T07:29:02.953Z,99.90
2018-12-17T07:31:31.148Z,99.90
2018-12-17T07:33:59.397Z,99.90
2018-12-17T07:36:27.620Z,99.90
2018-12-17T07:38:55.893Z,99.90
2018-12-17T07:41:24.087Z,99.90
2018-12-17T07:43:52.270Z,99.90
2018-12-17T07:46:20.594Z,99.90
2018-12-17T07:48:48.858Z,99.90
2018-12-17T07:51:17.033Z,99.90
2018-12-17T07:53:45.221Z,99.90
2018-12-17T07:56:13.448Z,99.90
2018-12-17T07:58:41.626Z,99.90
2018-12-17T08:01:09.831Z,99.90
2018-12-17T08:03:38.026Z,99.90
2018-12-17T08:06:06.225Z,99.90
2018-12-17T08:08:35.555Z,99.90
2018-12-17T08:11:04.252Z,99.90
2018-12-17T08:13:32.748Z,99.90
2018-12-17T08:16:00.961Z,99.90
2018-12-17T08:18:29.149Z,99.90
2018-12-17T08:20:57.325Z,99.90
2018-12-17T08:23:25.554Z,99.90
2018-12-17T08:25:53.733Z,99.90
2018-12-17T08:30:56.749Z,99.90
2018-12-17T08:33:24.923Z,99.90
2018-12-17T08:35:53.153Z,99.90
2018-12-17T08:38:21.362Z,99.90
2018-12-17T08:40:49.756Z,99.90
2018-12-17T08:43:18.052Z,99.90
2018-12-17T08:45:46.252Z,99.90
2018-12-17T08:48:14.429Z,99.90
2018-12-17T08:50:42.600Z,99.90
2018-12-17T08:53:10.800Z,99.90
2018-12-17T08:55:38.976Z,99.90
2018-12-17T08:58:07.325Z,99.90
2018-12-17T09:00:35.596Z,99.90
2018-12-17T09:03:03.773Z,99.90
2018-12-17T09:05:31.948Z,99.90
2018-12-17T09:08:00.151Z,99.90
2018-12-17T09:10:28.334Z,99.90
2018-12-17T09:12:56.515Z,99.90
2018-12-17T09:15:24.728Z,99.90
2018-12-17T09:17:52.925Z,99.90
2018-12-17T09:20:21.572Z,99.90
2018-12-17T09:22:49.775Z,99.90
2018-12-17T09:25:17.998Z,99.90
2018-12-17T09:27:46.178Z,99.90
2018-12-17T09:30:18.302Z,99.90
2018-12-17T09:32:44.836Z,99.90
2018-12-17T09:35:13.424Z,99.90
2018-12-17T09:37:41.722Z,99.90
2018-12-17T09:40:09.963Z,99.90
2018-12-17T09:42:38.170Z,99.90
2018-12-17T09:45:07.155Z,99.90
2018-12-17T09:47:35.332Z,99.90
2018-12-17T09:50:04.767Z,99.90
2018-12-17T09:52:32.981Z,99.90
2018-12-17T09:55:01.172Z,99.90
2018-12-17T09:57:29.355Z,99.90
2018-12-17T09:59:57.544Z,99.90
2018-12-17T10:02:25.779Z,99.90
2018-12-17T10:04:53.962Z,99.90
2018-12-17T10:07:22.164Z,99.90
2018-12-17T10:09:50.366Z,99.90
2018-12-17T10:12:18.544Z,99.90
2018-12-17T10:14:46.736Z,99.90
2018-12-17T10:17:14.905Z,99.90
2018-12-17T10:19:43.095Z,99.90
2018-12-17T10:22:11.664Z,99.90
2018-12-17T10:24:39.913Z,99.90
2018-12-17T10:27:08.128Z,99.90
2018-12-17T10:29:37.032Z,99.90
2018-12-17T10:32:05.232Z,99.90
2018-12-17T10:34:33.818Z,99.90
2018-12-17T10:37:02.122Z,99.90
2018-12-17T10:39:30.334Z,99.90
2018-12-17T10:41:58.532Z,99.90
2018-12-17T10:44:28.069Z,96.10
2018-12-17T10:46:56.536Z,90.20
2018-12-17T10:49:24.727Z,81.10
2018-12-17T10:51:53.076Z,79.60
2018-12-17T10:54:21.267Z,79.60
2018-12-17T10:56:49.459Z,79.70
2018-12-17T10:59:17.665Z,82.70
2018-12-17T11:01:55.364Z,86.40
2018-12-17T11:04:24.711Z,89.20
2018-12-17T11:06:52.949Z,90.70
2018-12-17T11:09:21.123Z,89.80
2018-12-17T11:11:49.425Z,90.20
2018-12-17T11:14:17.648Z,91.00
2018-12-17T11:16:45.818Z,91.60
2018-12-17T11:19:14.122Z,92.00
2018-12-17T11:21:42.293Z,92.40
2018-12-17T11:24:10.592Z,92.90
2018-12-17T11:26:38.882Z,93.00
2018-12-17T11:29:07.048Z,93.10
2018-12-17T11:31:35.308Z,93.30
2018-12-17T11:34:03.512Z,93.60
2018-12-17T11:36:31.687Z,93.70
2018-12-17T11:39:00.793Z,93.90
2018-12-17T11:41:28.976Z,93.80
2018-12-17T11:43:57.263Z,94.10
2018-12-17T11:46:25.431Z,94.20
2018-12-17T11:48:53.646Z,94.10
2018-12-17T11:51:21.894Z,93.80
2018-12-17T11:53:50.149Z,93.20
2018-12-17T11:56:18.340Z,93.40
2018-12-17T11:58:46.723Z,93.30
2018-12-17T12:01:14.889Z,92.80
2018-12-17T12:03:44.573Z,92.10
2018-12-17T12:06:14.290Z,91.60
2018-12-17T12:08:42.736Z,91.20
2018-12-17T12:11:10.954Z,91.30
2018-12-17T12:13:39.127Z,90.80
2018-12-17T12:16:07.289Z,90.50
2018-12-17T12:18:35.622Z,89.70
2018-12-17T12:21:03.790Z,89.40
2018-12-17T12:23:31.965Z,90.10
2018-12-17T12:26:00.153Z,91.10
2018-12-17T12:28:28.319Z,92.10
2018-12-17T12:31:00.486Z,92.70
2018-12-17T12:33:26.961Z,93.00
2018-12-17T12:35:55.151Z,93.10
2018-12-17T12:38:23.319Z,93.70
2018-12-17T12:40:51.500Z,94.10
2018-12-17T12:43:19.739Z,94.30
2018-12-17T12:45:47.924Z,94.50
2018-12-17T12:48:16.105Z,94.30
2018-12-17T12:50:44.288Z,93.90
2018-12-17T12:53:12.447Z,93.10
2018-12-17T12:55:40.657Z,92.20
2018-12-17T12:58:08.830Z,91.70
2018-12-17T13:00:37.185Z,90.50
2018-12-17T13:03:05.388Z,90.20
2018-12-17T13:05:33.562Z,90.60
2018-12-17T13:08:01.731Z,91.50
2018-12-17T13:10:29.957Z,91.60
2018-12-17T13:12:58.134Z,91.50
2018-12-17T13:15:26.302Z,91.10
2018-12-17T13:17:54.494Z,90.60
2018-12-17T13:20:22.676Z,89.70
2018-12-17T13:22:50.882Z,89.80
2018-12-17T13:25:21.090Z,90.10
2018-12-17T13:27:49.253Z,91.40
2018-12-17T13:30:17.599Z,92.60
2018-12-17T13:32:45.783Z,94.00
2018-12-17T13:35:13.955Z,95.00
2018-12-17T13:37:42.133Z,96.70
2018-12-17T13:40:10.329Z,97.70
2018-12-17T13:42:38.503Z,98.40
2018-12-17T13:45:06.818Z,99.40
2018-12-17T13:47:35.028Z,99.90
2018-12-17T13:53:10.685Z,99.90
2018-12-17T13:55:38.862Z,99.90
2018-12-17T13:58:07.046Z,99.90
2018-12-17T14:00:35.352Z,99.90
2018-12-17T14:03:03.532Z,99.90
2018-12-17T14:05:31.691Z,99.90
2018-12-17T14:07:59.909Z,99.90
2018-12-17T14:10:33.437Z,99.90
2018-12-17T14:13:01.647Z,99.90
2018-12-17T14:15:31.869Z,99.90
2018-12-17T14:18:02.105Z,99.90
2018-12-17T14:20:35.773Z,99.90
2018-12-17T14:23:04.181Z,99.90
2018-12-17T14:25:32.384Z,99.90
2018-12-17T14:28:00.559Z,99.90
2018-12-17T14:30:29.516Z,99.90
2018-12-17T14:32:57.691Z,99.90
2018-12-17T14:35:25.861Z,99.90
2018-12-17T14:37:59.586Z,99.90
2018-12-17T14:40:27.753Z,99.90
2018-12-17T14:42:55.965Z,99.90
2018-12-17T14:45:24.171Z,99.90
2018-12-17T14:47:52.927Z,99.90
2018-12-17T14:50:21.256Z,99.90
2018-12-17T14:52:49.476Z,99.90
2018-12-17T14:55:17.672Z,99.90
2018-12-17T14:57:45.852Z,99.90
2018-12-17T15:00:14.180Z,99.90
2018-12-17T15:02:42.552Z,99.90
2018-12-17T15:05:10.745Z,99.90
2018-12-17T15:07:39.096Z,99.90
2018-12-17T15:10:07.300Z,99.90
2018-12-17T15:12:35.476Z,99.90
2018-12-17T15:15:06.666Z,99.90
2018-12-17T15:17:34.830Z,99.90
2018-12-17T15:20:03.139Z,99.90
2018-12-17T15:22:31.475Z,99.90
2018-12-17T15:25:00.351Z,99.90
2018-12-17T15:27:28.539Z,99.90
2018-12-17T15:29:56.868Z,99.90
2018-12-17T15:32:25.198Z,99.90
2018-12-17T15:34:53.370Z,99.90
2018-12-17T15:37:21.571Z,99.90
2018-12-17T15:39:49.741Z,99.90
2018-12-17T15:42:17.930Z,99.90
2018-12-17T15:44:46.125Z,99.90
2018-12-17T15:47:14.411Z,99.90
2018-12-17T15:49:42.571Z,99.90
2018-12-17T15:52:10.771Z,99.90
2018-12-17T15:54:38.952Z,99.90
2018-12-17T15:57:07.137Z,99.90
2018-12-17T15:59:35.401Z,99.90
2018-12-17T16:02:03.648Z,99.90
2018-12-17T16:04:31.814Z,99.90
2018-12-17T16:07:00.044Z,99.90
2018-12-17T16:09:28.240Z,99.90
2018-12-17T16:11:57.014Z,99.90
2018-12-17T16:14:25.921Z,99.90
2018-12-17T16:16:54.112Z,99.90
2018-12-17T16:19:22.580Z,99.90
2018-12-17T16:21:50.990Z,99.90
2018-12-17T16:24:19.647Z,99.90
2018-12-17T16:26:48.751Z,99.90
2018-12-17T16:29:17.691Z,99.90
2018-12-17T16:31:45.945Z,99.90
2018-12-17T16:34:14.161Z,99.90
2018-12-17T16:36:43.308Z,99.90
2018-12-17T16:39:11.483Z,99.90
2018-12-17T16:41:39.665Z,99.90
2018-12-17T16:44:07.854Z,99.90
2018-12-17T16:46:36.030Z,99.90
2018-12-17T16:49:04.201Z,99.90
2018-12-17T16:51:32.524Z,99.90
2018-12-17T16:54:00.695Z,99.90
2018-12-17T16:56:33.920Z,99.90
2018-12-17T16:59:02.209Z,99.90
2018-12-17T17:01:30.575Z,99.90
2018-12-17T17:03:58.785Z,99.90
2018-12-17T17:06:26.952Z,99.90
2018-12-17T17:08:55.150Z,99.90
2018-12-17T17:11:23.351Z,99.90
2018-12-17T17:13:51.655Z,99.90
2018-12-17T17:16:19.830Z,99.90
2018-12-17T17:18:48.019Z,99.90
2018-12-17T17:21:16.402Z,99.90
2018-12-17T17:23:44.580Z,99.90
2018-12-17T17:26:13.626Z,99.90
2018-12-17T17:28:41.808Z,99.90
2018-12-17T17:31:10.099Z,99.90
2018-12-17T17:33:38.313Z,99.90
2018-12-17T17:36:06.581Z,99.90
2018-12-17T17:38:34.757Z,99.90
2018-12-17T17:41:03.102Z,99.90
2018-12-17T17:43:31.386Z,99.90
2018-12-17T17:45:59.570Z,99.90
2018-12-17T17:48:27.765Z,99.90
2018-12-17T17:50:55.947Z,99.90
2018-12-17T17:53:24.128Z,99.90
2018-12-17T17:55:52.359Z,99.90
2018-12-17T17:58:20.534Z,99.90
2018-12-17T18:00:48.713Z,99.90
2018-12-17T18:03:17.089Z,99.90
2018-12-17T18:05:45.294Z,99.90
2018-12-17T18:08:13.593Z,99.90
2018-12-17T18:10:41.857Z,99.90
2018-12-17T18:13:10.050Z,99.90
2018-12-17T18:15:40.005Z,99.90
2018-12-17T18:18:08.603Z,99.90
2018-12-17T18:20:36.793Z,99.90
2018-12-17T18:23:04.980Z,99.90
2018-12-17T18:25:33.241Z,99.90
2018-12-17T18:28:01.423Z,99.90
2018-12-17T18:30:29.616Z,99.90
2018-12-17T18:32:57.953Z,99.90
2018-12-17T18:35:26.276Z,99.90
2018-12-17T18:37:54.808Z,99.90
2018-12-17T18:40:23.171Z,99.90
2018-12-17T18:42:51.419Z,99.90
2018-12-17T18:45:19.692Z,99.90
2018-12-17T18:47:47.913Z,99.90
2018-12-17T18:50:16.143Z,99.90
2018-12-17T18:52:44.465Z,99.90
2018-12-17T18:55:12.670Z,99.90
2018-12-17T18:57:40.899Z,99.90
2018-12-17T19:00:10.760Z,99.90
2018-12-17T19:02:39.044Z,99.90
2018-12-17T19:05:07.258Z,99.90
2018-12-17T19:07:35.456Z,99.90
2018-12-17T19:10:05.775Z,99.90
2018-12-17T19:12:33.961Z,99.90
2018-12-17T19:15:02.157Z,99.90
2018-12-17T19:17:30.375Z,99.90
2018-12-17T19:19:58.554Z,99.90
2018-12-17T19:22:26.735Z,99.90
2018-12-17T19:24:55.076Z,99.90
2018-12-17T19:27:23.411Z,99.90
2018-12-17T19:29:51.598Z,99.90
2018-12-17T19:32:20.009Z,99.90
2018-12-17T19:34:54.131Z,99.90
2018-12-17T19:37:22.348Z,99.90
2018-12-17T19:39:50.665Z,99.90
2018-12-17T19:42:18.860Z,99.90
2018-12-17T19:44:47.079Z,99.90
2018-12-17T19:47:15.307Z,99.90
2018-12-17T19:49:43.518Z,99.90
2018-12-17T19:52:11.882Z,99.90
2018-12-17T19:54:40.296Z,99.90
2018-12-17T19:57:08.484Z,99.90
2018-12-17T19:59:36.899Z,99.90
2018-12-17T20:02:05.131Z,99.90
2018-12-17T20:04:33.321Z,99.90
2018-12-17T20:07:01.524Z,99.90
2018-12-17T20:09:29.731Z,99.90
2018-12-17T20:11:57.951Z,99.90
2018-12-17T20:14:26.295Z,99.90
2018-12-17T20:16:54.643Z,99.90
2018-12-17T20:19:22.834Z,99.90
2018-12-17T20:21:51.775Z,99.90
2018-12-17T20:24:20.083Z,99.90
2018-12-17T20:26:48.396Z,99.90
2018-12-17T20:29:16.584Z,99.90
2018-12-17T20:31:44.777Z,99.90
2018-12-17T20:34:12.957Z,99.90
2018-12-17T20:36:41.186Z,99.90
2018-12-17T20:39:09.374Z,99.90
2018-12-17T20:41:37.649Z,99.90
2018-12-17T20:44:05.883Z,99.90
2018-12-17T20:46:34.056Z,99.90
2018-12-17T20:49:02.253Z,99.90
2018-12-17T20:51:30.448Z,99.90
2018-12-17T20:53:58.725Z,99.90
2018-12-17T20:56:27.037Z,99.90
2018-12-17T20:58:55.397Z,99.90
2018-12-17T21:01:23.604Z,99.90
2018-12-17T21:03:51.792Z,99.90
2018-12-17T21:06:20.015Z,99.90
2018-12-17T21:08:48.212Z,99.90
2018-12-17T21:11:16.566Z,99.90
2018-12-17T21:13:44.781Z,99.90
2018-12-17T21:16:12.968Z,99.90
2018-12-17T21:18:41.163Z,99.90
2018-12-17T21:21:09.756Z,99.90
2018-12-17T21:23:38.286Z,99.90
2018-12-17T21:26:06.499Z,99.90
2018-12-17T21:28:34.766Z,99.90
2018-12-17T21:31:02.955Z,99.90
2018-12-17T21:33:31.210Z,99.90
2018-12-17T21:35:59.441Z,99.90
2018-12-17T21:38:27.661Z,99.90
2018-12-17T21:40:55.854Z,99.90
2018-12-17T21:43:24.155Z,99.90
2018-12-17T21:45:52.435Z,99.90
2018-12-17T21:48:20.627Z,99.90
2018-12-17T21:50:49.005Z,99.90
2018-12-17T21:53:17.202Z,99.90
2018-12-17T21:55:45.386Z,99.90
2018-12-17T21:58:13.607Z,99.90
2018-12-17T22:00:41.784Z,99.90
2018-12-17T22:03:13.192Z,99.90
2018-12-17T22:05:40.205Z,99.90
2018-12-17T22:08:08.396Z,99.90
2018-12-17T22:10:36.647Z,99.90
2018-12-17T22:13:04.862Z,99.90
2018-12-17T22:15:33.057Z,99.90
2018-12-17T22:18:01.245Z,99.90
2018-12-17T22:20:29.483Z,99.90
2018-12-17T22:22:57.672Z,99.90
2018-12-17T22:25:25.860Z,99.90
2018-12-17T22:27:54.060Z,99.90
2018-12-17T22:30:22.303Z,99.90
2018-12-17T22:32:50.492Z,99.90
2018-12-17T22:35:18.700Z,99.90
2018-12-17T22:37:46.876Z,99.90
2018-12-17T22:40:15.060Z,99.90
2018-12-17T22:42:43.479Z,99.90
2018-12-17T22:45:11.659Z,99.90
2018-12-17T22:47:39.841Z,99.90
2018-12-17T22:50:08.070Z,99.90
2018-12-17T22:52:36.257Z,99.90
2018-12-17T22:55:04.590Z,99.90
2018-12-17T22:57:32.803Z,99.90
2018-12-17T23:00:01.140Z,99.90
2018-12-17T23:02:29.328Z,99.90
2018-12-17T23:04:57.520Z,99.90
2018-12-17T23:07:26.105Z,99.90
2018-12-17T23:10:12.007Z,99.90
2018-12-17T23:12:57.977Z,99.90
2018-12-17T23:15:43.871Z,99.90
2018-12-17T23:18:11.433Z,99.90
2018-12-17T23:20:41.826Z,99.90
2018-12-17T23:23:10.039Z,99.90
2018-12-17T23:25:38.217Z,99.90
2018-12-17T23:28:07.929Z,99.90
2018-12-17T23:30:36.144Z,99.90
2018-12-17T23:33:04.356Z,99.90
2018-12-17T23:35:32.542Z,99.90
2018-12-17T23:38:00.753Z,99.90
2018-12-17T23:40:29.075Z,99.90
2018-12-17T23:42:57.259Z,99.90
2018-12-17T23:45:25.477Z,99.90
2018-12-17T23:47:53.682Z,99.90
2018-12-17T23:50:21.875Z,99.90
2018-12-17T23:52:50.063Z,99.90
2018-12-17T23:55:18.261Z,99.90
2018-12-17T23:57:46.570Z,99.90
